Latest Weather Observations for Christmas Creek

IDW60801

Issued at 10:33 am WST Monday 27 January 2020 (issued every 10 minutes, with the page automatically refreshed every 10 minutes)

About weather observations | Map of weather stations | Latest weather observations for WA | Other Formats
Station Details ID: 505049 Name: CHRISTMAS CREEK Lat: -22.36 Lon: 119.65 Height: 437.21 m
Data from the previous 72 hours. | See also: Recent months for locations in Western Australia
Date/Time
WST
Temp
°C
App
Temp
°C
Dew
Point
°C
Rel
Hum
%
Delta-T
°C
Wind Press
QNH
hPa
Press
MSL
hPa
Rain since
9am
mm
Dir  Spd
km/h
Gust
km/h
Spd
kts
Gust
kts
27/10:30am 37.8 34.4 5.7 14 17.9 SE 13 22 7 12 1012.7 1009.0 0.0
27/10:00am 37.1 33.8 6.2 15 17.3 SE 13 20 7 11 1012.8 1009.1 0.0
27/09:30am 35.0 32.8 10.8 23 14.4 SE 13 20 7 11 1013.1 1009.4 0.0
27/09:00am 33.6 31.9 12.6 28 12.8 SE 13 22 7 12 1013.4 1009.6 0.0
27/08:30am 31.5 31.8 15.9 39 9.9 S 9 17 5 9 1013.4 1009.6 0.0
27/08:00am 30.4 31.7 18.5 49 7.8 S 9 15 5 8 1013.3 1009.5 0.0
27/07:30am 29.2 30.9 18.0 51 7.3 SSE 6 7 3 4 1013.1 1009.4 0.0
27/07:00am 28.2 30.3 18.0 54 6.6 SSE 4 6 2 3 1013.0 1009.3 0.0
27/06:30am 27.0 29.6 18.3 59 5.6 NNE 2 4 1 2 1012.6 1008.9 0.0
27/06:00am 25.6 27.7 18.0 63 4.9 NE 4 4 2 2 1012.3 1008.6 0.0
27/05:38am 24.4 26.7 18.6 70 3.7 E 4 6 2 3 1012.1 1008.4 0.0
27/05:30am 24.4 27.0 18.3 69 3.9 E 2 2 1 1 1011.9 1008.2 0.0
27/05:00am 25.4 27.5 18.1 64 4.7 NE 4 6 2 3 1011.7 1008.0 0.0
27/04:30am 25.6 27.9 17.8 62 5.0 ESE 2 4 1 2 1011.5 1007.7 0.0
27/04:00am 26.8 28.6 17.3 56 6.1 NE 4 7 2 4 1011.2 1007.4 0.0
27/03:30am 26.6 28.3 17.1 56 6.0 SW 4 13 2 7 1011.2 1007.4 0.0
27/03:00am 27.7 29.0 17.5 53 6.5 NNW 7 17 4 9 1010.9 1007.1 0.0
27/02:30am 28.0 28.4 17.2 52 6.9 N 11 17 6 9 1010.5 1006.8 0.0
27/02:00am 28.1 28.0 16.1 48 7.6 NNW 11 17 6 9 1010.5 1006.8 0.0
27/01:30am 29.7 27.5 9.3 28 11.6 NNE 11 17 6 9 1010.6 1006.9 0.0
27/01:00am 30.6 29.0 8.9 26 12.3 NE 7 13 4 7 1010.6 1006.9 0.0
27/12:30am 29.3 29.0 11.4 33 10.5 NE 4 6 2 3 1010.6 1006.9 0.0
27/12:00am 30.4 28.9 10.4 29 11.6 E 9 13 5 7 1011.0 1007.2 0.0
 
Date/Time
WST
Temp
°C
App
Temp
°C
Dew
Point
°C
Rel
Hum
%
Delta-T
°C
Wind Press
QNH
hPa
Press
MSL
hPa
Rain since
9am
mm
Dir  Spd
km/h
Gust
km/h
Spd
kts
Gust
kts
26/11:30pm 29.7 29.5 11.7 33 10.6 SSE 4 6 2 3 1011.3 1007.5 0.0
26/11:00pm 30.4 31.4 15.3 40 9.5 ENE 4 6 2 3 1011.5 1007.7 0.0
26/10:30pm 31.2 32.4 14.8 37 10.2 NE 2 4 1 2 1011.5 1007.7 0.0
26/10:00pm 31.4 32.8 14.5 35 10.5 CALM 0 2 0 1 1011.5 1007.7 0.0
26/09:30pm 31.5 31.7 14.2 35 10.7 SSW 6 7 3 4 1011.3 1007.5 0.0
26/09:00pm 31.7 32.0 13.5 33 11.2 SSE 4 6 2 3 1011.1 1007.3 0.0
26/08:30pm 32.0 31.9 13.2 31 11.5 S 6 6 3 3 1010.7 1007.0 0.0
26/08:00pm 33.0 32.6 13.1 30 12.2 S 7 9 4 5 1010.4 1006.7 0.0
26/07:30pm 34.2 32.9 11.4 25 13.7 SSW 9 13 5 7 1009.9 1006.2 0.0
26/07:00pm 35.4 33.5 9.0 20 15.4 SSW 9 11 5 6 1009.6 1005.9 0.0
26/06:30pm 37.2 35.1 8.1 17 16.8 SSW 9 13 5 7 1009.4 1005.6 0.0
26/06:00pm 38.5 35.4 7.3 15 17.9 SSW 13 22 7 12 1009.2 1005.4 0.0
26/05:30pm 38.9 34.3 5.5 13 18.7 SSW 19 28 10 15 1008.9 1005.1 0.0
26/05:00pm 39.2 34.6 5.7 13 18.9 SSW 19 33 10 18 1008.9 1005.1 0.0
26/04:30pm 39.5 34.4 6.0 13 19.0 S 22 33 12 18 1009.1 1005.3 0.0
26/04:00pm 39.6 34.8 4.9 12 19.4 SSW 19 26 10 14 1009.3 1005.5 0.0
26/03:30pm 40.2 36.2 6.5 13 19.3 S 17 32 9 17 1009.5 1005.8 0.0
26/03:00pm 40.3 36.2 4.2 11 20.0 SSE 15 24 8 13 1009.7 1006.0 0.0
26/02:30pm 40.3 36.0 5.4 12 19.6 S 17 24 9 13 1009.8 1006.1 0.0
26/02:00pm 39.8 34.8 3.8 11 19.8 SSE 19 26 10 14 1010.0 1006.3 0.0
26/01:30pm 39.4 35.7 2.2 10 19.9 SSE 11 28 6 15 1010.3 1006.6 0.0
26/01:00pm 39.4 35.7 4.7 12 19.3 ESE 13 22 7 12 1010.6 1006.9 0.0
26/12:30pm 39.6 35.2 4.9 12 19.3 ESE 17 32 9 17 1011.0 1007.2 0.0
26/12:00pm 38.9 34.1 4.4 12 19.0 ESE 19 35 10 19 1011.4 1007.6 0.0
26/11:30am 38.3 32.4 3.9 12 18.8 ESE 24 43 13 23 1011.8 1008.1 0.0
26/11:00am 37.9 32.2 4.7 13 18.3 ESE 24 39 13 21 1012.0 1008.3 0.0
26/10:30am 37.0 31.0 5.1 14 17.6 SE 26 37 14 20 1012.4 1008.7 0.0
26/10:00am 36.6 31.3 4.8 14 17.4 ESE 22 33 12 18 1012.7 1009.0 0.0
26/09:30am 35.2 29.5 4.7 15 16.6 ESE 24 33 13 18 1012.9 1009.2 0.0
26/09:00am 34.6 28.9 5.1 16 16.1 ESE 24 33 13 18 1013.0 1009.3 0.0
26/08:30am 33.0 27.2 6.3 19 14.7 ESE 26 33 14 18 1013.0 1009.3 0.0
26/08:00am 31.8 26.9 6.8 21 13.8 ESE 22 30 12 16 1012.8 1009.1 0.0
26/07:30am 30.3 26.0 6.9 23 12.8 ESE 19 26 10 14 1012.6 1008.9 0.0
26/07:00am 29.2 25.3 7.2 25 12.1 ESE 17 22 9 12 1012.6 1008.9 0.0
26/06:30am 28.1 25.0 7.4 27 11.3 SE 13 17 7 9 1012.3 1008.6 0.0
26/06:00am 26.9 24.7 7.9 30 10.4 SE 9 15 5 8 1012.1 1008.4 0.0
26/05:30am 27.9 25.0 6.6 26 11.5 ESE 11 17 6 9 1011.5 1007.7 0.0
26/05:00am 27.6 24.8 6.9 27 11.2 SE 11 15 6 8 1011.0 1007.2 0.0
26/04:30am 27.6 24.6 7.5 28 11.0 SE 13 19 7 10 1010.7 1007.0 0.0
26/04:00am 27.4 25.7 8.3 30 10.6 ESE 7 11 4 6 1010.7 1007.0 0.0
26/03:30am 27.7 25.2 8.1 29 10.8 SE 11 17 6 9 1010.6 1006.9 0.0
26/03:00am 28.2 24.9 8.0 28 11.2 ESE 15 24 8 13 1010.5 1006.8 0.0
26/02:30am 27.9 25.9 8.7 30 10.7 ESE 9 13 5 7 1010.6 1006.9 0.0
26/02:00am 28.6 25.7 8.3 28 11.3 SE 13 19 7 10 1010.6 1006.9 0.0
26/01:30am 29.2 26.7 8.3 27 11.7 SE 11 17 6 9 1010.7 1007.0 0.0
26/01:00am 28.4 26.3 9.6 31 10.7 SE 11 15 6 8 1010.9 1007.1 0.0
26/12:30am 29.7 28.0 9.8 29 11.4 ESE 9 15 5 8 1011.0 1007.2 0.0
26/12:00am 30.5 28.1 8.8 26 12.3 ESE 11 15 6 8 1011.1 1007.3 0.0
 
Date/Time
WST
Temp
°C
App
Temp
°C
Dew
Point
°C
Rel
Hum
%
Delta-T
°C
Wind Press
QNH
hPa
Press
MSL
hPa
Rain since
9am
mm
Dir  Spd
km/h
Gust
km/h
Spd
kts
Gust
kts
25/11:30pm 30.5 28.4 8.3 25 12.5 SE 9 15 5 8 1011.2 1007.4 0.0
25/11:00pm 30.7 28.6 8.4 25 12.6 SE 9 11 5 6 1011.5 1007.7 0.0
25/10:30pm 30.7 28.8 9.0 26 12.3 SE 9 11 5 6 1011.5 1007.7 0.0
25/10:00pm 30.1 28.8 10.1 29 11.6 SE 7 9 4 5 1011.4 1007.6 0.0
25/09:30pm 32.1 29.9 7.7 22 13.7 ESE 9 11 5 6 1011.1 1007.3 0.0
25/09:00pm 32.5 30.3 8.0 22 13.8 ESE 9 13 5 7 1010.9 1007.1 0.0
25/08:30pm 33.2 31.0 7.9 21 14.3 SE 9 13 5 7 1010.5 1006.8 0.0
25/08:00pm 33.9 31.5 7.0 19 15.1 SE 9 13 5 7 1010.4 1006.7 0.0
25/07:30pm 34.8 32.0 7.0 18 15.6 SE 11 15 6 8 1010.3 1006.6 0.0
25/07:00pm 36.1 32.6 5.4 15 17.0 SE 13 19 7 10 1010.1 1006.4 0.0
25/06:30pm 37.1 33.2 5.2 14 17.6 SE 15 26 8 14 1009.6 1005.9 0.0
25/06:00pm 37.9 32.9 4.7 13 18.3 SE 20 32 11 17 1009.3 1005.5 0.0
25/05:30pm 38.7 34.6 6.4 14 18.3 SSE 17 28 9 15 1009.0 1005.2 0.0
25/05:00pm 38.6 35.3 6.3 14 18.3 SSE 13 24 7 13 1009.0 1005.2 0.0
25/04:30pm 38.7 35.6 7.4 15 18.0 SSW 13 22 7 12 1009.1 1005.3 0.0
25/04:00pm 38.7 34.5 7.4 15 18.0 S 19 28 10 15 1009.2 1005.4 0.0
25/03:30pm 38.4 34.9 7.2 15 17.9 SSE 15 26 8 14 1009.5 1005.8 0.0
25/03:00pm 38.1 34.9 7.0 15 17.8 SE 13 20 7 11 1009.9 1006.2 0.0
25/02:30pm 38.3 35.4 8.1 16 17.5 S 13 30 7 16 1010.3 1006.6 0.0
25/02:00pm 38.0 34.3 7.8 16 17.4 S 17 30 9 16 1010.7 1007.0 0.0
25/01:30pm 38.0 34.9 8.7 17 17.1 SSE 15 26 8 14 1011.0 1007.2 0.0
25/01:00pm 37.4 33.2 7.3 16 17.2 S 19 28 10 15 1011.4 1007.6 0.0
25/12:30pm 37.1 33.4 8.0 17 16.8 S 17 26 9 14 1011.8 1008.1 0.0
25/12:00pm 36.3 32.5 9.0 19 15.9 SSE 19 30 10 16 1012.3 1008.6 0.0
25/11:30am 35.9 33.5 10.2 21 15.2 SSE 13 24 7 13 1012.8 1009.1 0.0
25/11:00am 35.3 32.0 8.2 19 15.5 SSE 15 22 8 12 1013.4 1009.6 0.0
25/10:30am 35.1 33.1 10.2 22 14.7 SSE 11 20 6 11 1013.6 1009.8 0.0
25/10:00am 33.5 31.3 9.5 23 13.9 SE 11 19 6 10 1014.0 1010.3 0.0
25/09:30am 32.7 30.9 9.5 24 13.4 SE 9 17 5 9 1014.1 1010.4 0.0
25/09:00am 32.3 30.6 9.8 25 13.1 SE 9 15 5 8 1014.3 1010.6 0.0
25/08:30am 30.4 28.9 10.4 29 11.6 SE 9 17 5 9 1014.3 1010.6 0.0
25/08:00am 29.0 28.7 13.2 37 9.5 SSW 7 11 4 6 1014.2 1010.5 0.0
25/07:30am 28.0 28.1 13.9 42 8.6 SSW 6 9 3 5 1013.9 1010.2 0.0
25/07:00am 27.2 27.9 15.6 49 7.2 SW 6 9 3 5 1013.9 1010.2 0.0
25/06:57am 27.1 27.9 15.8 50 7.0 SW 6 7 3 4 1013.9 1010.2 0.0
25/06:40am 26.4 27.4 16.3 53 6.3 SW 6 7 3 4 1013.7 1010.0 0.0
25/06:30am 25.8 26.7 16.6 56 5.8 WSW 7 9 4 5 1013.6 1009.8 0.0
25/06:00am 25.2 25.9 16.1 57 5.7 W 7 7 4 4 1013.3 1009.5 0.0
25/05:30am 24.7 25.6 16.2 59 5.3 W 6 9 3 5 1012.9 1009.2 0.0
25/05:00am 25.0 25.4 16.4 59 5.4 W 9 11 5 6 1012.3 1008.6 0.0
25/04:30am 25.0 26.1 16.7 60 5.2 SW 6 7 3 4 1012.1 1008.4 0.0
25/04:00am 25.5 26.6 17.9 63 4.9 W 9 11 5 6 1012.1 1008.4 0.0
25/03:30am 25.4 26.7 17.6 62 5.0 S 7 9 4 5 1011.8 1008.1 0.0
25/03:00am 26.1 26.4 14.9 50 6.9 SSW 7 9 4 5 1011.7 1008.0 0.0
25/02:30am 27.0 26.8 11.9 39 8.9 S 4 6 2 3 1011.6 1007.9 0.0
25/02:00am 27.3 27.3 12.5 40 8.8 SE 4 6 2 3 1011.5 1007.7 0.0
25/01:30am 27.6 28.1 12.8 40 8.8 NNE 2 4 1 2 1011.6 1007.9 0.0
25/01:00am 29.9 29.4 11.9 33 10.7 ENE 6 7 3 4 1011.7 1008.0 0.0
25/12:30am 30.4 29.4 10.4 29 11.6 ENE 6 7 3 4 1011.7 1008.0 0.0
25/12:00am 30.5 29.8 11.9 31 11.1 ENE 7 9 4 5 1011.8 1008.1 0.0
 
Date/Time
WST
Temp
°C
App
Temp
°C
Dew
Point
°C
Rel
Hum
%
Delta-T
°C
Wind Press
QNH
hPa
Press
MSL
hPa
Rain since
9am
mm
Dir  Spd
km/h
Gust
km/h
Spd
kts
Gust
kts
24/11:30pm 31.4 30.9 12.2 30 11.5 ENE 6 9 3 5 1011.9 1008.2 0.0
24/11:00pm 32.0 31.6 12.3 30 11.9 NNE 6 7 3 4 1011.9 1008.2 0.0
24/10:30pm 32.5 32.4 12.2 29 12.2 NE 4 6 2 3 1011.8 1008.1 0.0
24/10:00pm 32.6 32.3 12.8 30 12.0 ENE 6 6 3 3 1011.7 1008.0 0.0
24/09:30pm 33.1 32.2 12.7 29 12.4 ESE 9 13 5 7 1011.7 1008.0 0.0
24/09:00pm 33.2 32.9 13.3 30 12.2 ESE 7 9 4 5 1011.7 1008.0 0.0
24/08:30pm 34.2 33.7 12.5 27 13.2 ESE 7 13 4 7 1011.6 1007.9 0.0
24/08:00pm 34.3 33.6 12.0 25 13.5 ESE 7 11 4 6 1011.3 1007.5 0.0
24/07:30pm 35.4 34.4 12.4 25 14.0 ESE 9 11 5 6 1011.0 1007.2 0.0
24/07:00pm 36.5 35.6 10.6 21 15.5 ESE 6 7 3 4 1010.4 1006.7 0.0
24/06:30pm 37.1 35.6 10.4 20 15.9 SE 9 15 5 8 1010.2 1006.5 0.0
24/06:00pm 37.6 36.2 10.8 20 16.2 SSE 9 17 5 9 1010.0 1006.3 0.0
24/05:30pm 38.2 35.9 10.5 19 16.6 SSE 13 19 7 10 1009.8 1006.1 0.0
24/05:00pm 38.1 35.4 10.5 19 16.6 SSE 15 22 8 12 1009.7 1006.0 0.0
24/04:30pm 38.1 35.8 10.5 19 16.6 S 13 26 7 14 1009.9 1006.2 0.0
24/04:00pm 37.9 35.9 10.3 19 16.5 S 11 19 6 10 1010.1 1006.4 0.0
24/03:30pm 38.1 35.2 9.6 18 16.9 S 15 24 8 13 1010.4 1006.7 0.0
24/03:00pm 38.1 36.6 10.5 19 16.6 S 9 20 5 11 1010.6 1006.9 0.0
24/02:30pm 37.7 35.1 9.3 18 16.7 SSW 13 24 7 13 1010.9 1007.1 0.0
24/02:00pm 37.5 34.3 10.0 19 16.4 S 17 28 9 15 1011.2 1007.4 0.0
24/01:30pm 37.8 35.5 11.7 21 15.9 SE 15 28 8 15 1011.4 1007.6 0.0
24/01:00pm 37.1 35.6 10.4 20 16.0 SSE 9 24 5 13 1011.8 1008.1 0.0
24/12:30pm 35.9 34.1 9.4 20 15.5 S 9 17 5 9 1012.3 1008.6 0.0
24/12:00pm 35.9 33.5 10.2 21 15.2 SE 13 22 7 12 1012.7 1009.0 0.0
24/11:30am 35.7 32.7 10.7 22 14.9 SSE 17 28 9 15 1012.9 1009.2 0.0
24/11:00am 35.4 32.7 10.4 22 14.8 SE 15 24 8 13 1013.5 1009.7 0.0

Other formats

Comma delimited format used in spreadsheet applications
http://www.bom.gov.au/fwo/IDW60801/IDW60801.99737.axf

JavaScript Object Notation format (JSON) in row-major order
http://www.bom.gov.au/fwo/IDW60801/IDW60801.99737.json

Data quality

Most of these data are generated automatically and are frequently updated. Quality checks on data are not normally performed. It is possible for incorrect values to appear. Refer to information at About Latest Weather Observations and please check the disclaimer before using these data.